createdAt,value
2019-06-15T00:00:12.749Z,536.60
2019-06-15T00:00:48.090Z,539.60
2019-06-15T00:01:23.464Z,558.30
2019-06-15T00:01:59.300Z,564.50
2019-06-15T00:02:34.616Z,558.00
2019-06-15T00:03:09.934Z,560.00
2019-06-15T00:03:45.208Z,563.90
2019-06-15T00:04:20.936Z,563.00
2019-06-15T00:04:56.402Z,581.50
2019-06-15T00:05:32.142Z,574.20
2019-06-15T00:06:07.610Z,559.60
2019-06-15T00:06:42.947Z,558.00
2019-06-15T00:07:18.429Z,553.30
2019-06-15T00:07:53.717Z,550.90
2019-06-15T00:08:29.284Z,565.30
2019-06-15T00:09:04.809Z,579.40
2019-06-15T00:09:40.281Z,578.90
2019-06-15T00:10:15.500Z,564.90
2019-06-15T00:10:50.786Z,557.40
2019-06-15T00:11:26.496Z,554.90
2019-06-15T00:12:01.669Z,567.00
2019-06-15T00:12:37.098Z,592.70
2019-06-15T00:13:12.501Z,571.30
2019-06-15T00:13:48.140Z,562.60
2019-06-15T00:14:23.407Z,584.00
2019-06-15T00:14:58.635Z,593.00
2019-06-15T00:15:34.025Z,598.60
2019-06-15T00:16:09.249Z,610.50
2019-06-15T00:16:44.503Z,611.60
2019-06-15T00:17:19.926Z,605.90
2019-06-15T00:17:55.080Z,622.80
2019-06-15T00:18:30.446Z,632.90
2019-06-15T00:19:05.723Z,580.30
2019-06-15T00:19:41.053Z,541.20
2019-06-15T00:20:16.527Z,512.20
2019-06-15T00:20:52.058Z,500.50
2019-06-15T00:21:27.627Z,502.10
2019-06-15T00:22:02.971Z,489.50
2019-06-15T00:22:38.543Z,477.80
2019-06-15T00:23:14.066Z,447.70
2019-06-15T00:23:49.274Z,439.10
2019-06-15T00:24:34.904Z,438.40
2019-06-15T00:25:00.204Z,432.90
2019-06-15T00:25:35.731Z,421.00
2019-06-15T00:26:11.404Z,427.10
2019-06-15T00:26:46.640Z,445.20
2019-06-15T00:27:22.342Z,441.40
2019-06-15T00:27:57.677Z,443.40
2019-06-15T00:28:33.065Z,449.60
2019-06-15T00:29:08.505Z,436.00
2019-06-15T00:29:43.679Z,420.00
2019-06-15T00:30:18.814Z,420.80
2019-06-15T00:30:54.295Z,419.70
2019-06-15T00:31:29.715Z,398.90
2019-06-15T00:32:04.992Z,412.20
2019-06-15T00:32:40.015Z,416.10
2019-06-15T00:33:15.494Z,398.80
2019-06-15T00:33:51.029Z,403.30
2019-06-15T00:34:26.736Z,417.90
2019-06-15T00:35:02.081Z,400.90
2019-06-15T00:35:37.865Z,405.60
2019-06-15T00:36:13.194Z,420.50
2019-06-15T00:36:48.587Z,410.30
2019-06-15T00:37:23.815Z,386.80
2019-06-15T00:37:59.303Z,378.40
2019-06-15T00:38:34.735Z,387.40
2019-06-15T00:39:10.104Z,388.20
2019-06-15T00:39:45.776Z,403.10
2019-06-15T00:40:21.161Z,393.30
2019-06-15T00:40:56.783Z,377.50
2019-06-15T00:41:32.158Z,383.70
2019-06-15T00:42:07.292Z,379.70
2019-06-15T00:42:42.363Z,374.50
2019-06-15T00:43:17.688Z,373.20
2019-06-15T00:43:52.957Z,375.20
2019-06-15T00:44:28.490Z,393.50
2019-06-15T00:45:03.811Z,388.50
2019-06-15T00:45:39.167Z,381.30
2019-06-15T00:46:14.539Z,374.40
2019-06-15T00:46:50.087Z,380.10
2019-06-15T00:47:25.556Z,374.10
2019-06-15T00:48:00.798Z,378.60
2019-06-15T00:48:36.256Z,379.50
2019-06-15T00:49:11.695Z,384.80
2019-06-15T00:49:47.071Z,371.10
2019-06-15T00:50:22.747Z,389.30
2019-06-15T00:50:58.030Z,393.80
2019-06-15T00:51:33.273Z,389.00
2019-06-15T00:52:08.627Z,379.00
2019-06-15T00:52:43.850Z,389.20
2019-06-15T00:53:19.118Z,380.00
2019-06-15T00:53:54.253Z,384.70
2019-06-15T00:54:29.624Z,384.30
2019-06-15T00:55:04.862Z,397.50
2019-06-15T00:55:40.397Z,382.00
2019-06-15T00:56:15.833Z,366.40
2019-06-15T00:56:51.205Z,369.60
2019-06-15T00:57:26.535Z,376.50
2019-06-15T00:58:02.115Z,381.90
2019-06-15T00:58:37.455Z,373.80
2019-06-15T00:59:12.869Z,366.20
2019-06-15T00:59:48.171Z,367.50
2019-06-15T01:00:24.294Z,377.90
2019-06-15T01:00:59.881Z,375.50
2019-06-15T01:01:35.554Z,369.60
2019-06-15T01:02:10.677Z,368.40
2019-06-15T01:02:46.061Z,361.40
2019-06-15T01:03:21.393Z,365.80
2019-06-15T01:03:56.681Z,378.70
2019-06-15T01:04:32.212Z,379.40
2019-06-15T01:05:07.576Z,378.40
2019-06-15T01:05:42.814Z,366.80
2019-06-15T01:06:18.343Z,368.70
2019-06-15T01:06:53.771Z,396.60
2019-06-15T01:07:29.344Z,384.70
2019-06-15T01:08:04.776Z,375.80
2019-06-15T01:08:40.257Z,388.10
2019-06-15T01:09:15.484Z,380.30
2019-06-15T01:09:51.279Z,377.50
2019-06-15T01:10:26.606Z,364.20
2019-06-15T01:11:02.081Z,369.50
2019-06-15T01:11:37.547Z,362.60
2019-06-15T01:12:13.118Z,364.10
2019-06-15T01:12:48.553Z,352.00
2019-06-15T01:13:24.328Z,333.20
2019-06-15T01:13:59.748Z,328.30
2019-06-15T01:14:35.214Z,346.40
2019-06-15T01:15:10.649Z,362.80
2019-06-15T01:15:46.213Z,372.50
2019-06-15T01:16:21.287Z,376.40
2019-06-15T01:16:56.767Z,377.40
2019-06-15T01:17:32.500Z,367.60
2019-06-15T01:18:07.980Z,367.40
2019-06-15T01:18:43.212Z,381.70
2019-06-15T01:19:18.694Z,368.70
2019-06-15T01:19:53.832Z,358.90
2019-06-15T01:20:29.194Z,361.90
2019-06-15T01:21:04.423Z,358.50
2019-06-15T01:21:40.202Z,356.90
2019-06-15T01:22:15.865Z,369.00
2019-06-15T01:22:51.038Z,374.70
2019-06-15T01:23:26.662Z,358.00
2019-06-15T01:24:02.062Z,346.50
2019-06-15T01:24:37.486Z,363.20
2019-06-15T01:25:13.390Z,374.20
2019-06-15T01:25:48.624Z,388.00
2019-06-15T01:26:23.992Z,372.10
2019-06-15T01:26:59.129Z,365.90
2019-06-15T01:27:34.647Z,354.10
2019-06-15T01:28:10.082Z,346.00
2019-06-15T01:28:45.451Z,349.20
2019-06-15T01:29:20.791Z,361.50
2019-06-15T01:29:56.143Z,364.30
2019-06-15T01:30:31.482Z,371.60
2019-06-15T01:31:06.960Z,356.20
2019-06-15T01:31:42.298Z,341.60
2019-06-15T01:32:17.579Z,349.90
2019-06-15T01:32:52.957Z,356.20
2019-06-15T01:33:28.253Z,361.40
2019-06-15T01:34:04.081Z,359.70
2019-06-15T01:34:40.055Z,352.70
2019-06-15T01:35:15.297Z,352.30
2019-06-15T01:35:50.680Z,369.20
2019-06-15T01:36:26.103Z,372.20
2019-06-15T01:37:01.778Z,366.80
2019-06-15T01:37:37.418Z,354.10
2019-06-15T01:38:13.035Z,346.80
2019-06-15T01:38:48.581Z,353.40
2019-06-15T01:39:24.157Z,352.40
2019-06-15T01:39:59.713Z,358.00
2019-06-15T01:40:35.303Z,367.00
2019-06-15T01:41:10.534Z,377.70
2019-06-15T01:41:46.203Z,364.30
2019-06-15T01:42:21.534Z,355.80
2019-06-15T01:42:56.942Z,354.70
2019-06-15T01:43:32.408Z,361.60
2019-06-15T01:44:07.674Z,370.80
2019-06-15T01:44:42.804Z,381.30
2019-06-15T01:45:18.385Z,382.60
2019-06-15T01:45:54.037Z,367.00
2019-06-15T01:46:29.398Z,356.30
2019-06-15T01:47:04.653Z,364.70
2019-06-15T01:47:40.123Z,377.20
2019-06-15T01:48:15.665Z,363.50
2019-06-15T01:48:50.978Z,359.80
2019-06-15T01:49:26.309Z,355.20
2019-06-15T01:50:01.492Z,367.30
2019-06-15T01:50:37.116Z,373.00
2019-06-15T01:51:12.294Z,364.60
2019-06-15T01:51:47.741Z,371.30
2019-06-15T01:52:23.124Z,350.30
2019-06-15T01:52:58.386Z,344.00
2019-06-15T01:53:33.860Z,361.40
2019-06-15T01:54:09.132Z,369.60
2019-06-15T01:54:44.601Z,357.90
2019-06-15T01:55:21.168Z,338.80
2019-06-15T01:55:55.112Z,353.10
2019-06-15T01:56:30.449Z,368.80
2019-06-15T01:57:06.009Z,375.70
2019-06-15T01:57:41.374Z,371.10
2019-06-15T01:58:16.733Z,353.90
2019-06-15T01:58:52.252Z,359.10
2019-06-15T01:59:27.788Z,370.20
2019-06-15T02:00:03.326Z,391.30
2019-06-15T02:00:38.596Z,394.00
2019-06-15T02:01:14.022Z,384.50
2019-06-15T02:01:49.579Z,376.40
2019-06-15T02:02:25.504Z,373.40
2019-06-15T02:03:00.972Z,379.10
2019-06-15T02:03:36.614Z,366.20
2019-06-15T02:04:11.889Z,371.30
2019-06-15T02:04:47.572Z,403.40
2019-06-15T02:05:23.255Z,402.60
2019-06-15T02:05:58.569Z,386.20
2019-06-15T02:06:33.973Z,384.00
2019-06-15T02:07:09.300Z,380.60
2019-06-15T02:07:44.666Z,386.40
2019-06-15T02:08:20.190Z,388.80
2019-06-15T02:08:55.555Z,410.20
2019-06-15T02:09:30.682Z,395.20
2019-06-15T02:10:06.201Z,364.30
2019-06-15T02:10:41.553Z,371.60
2019-06-15T02:11:16.913Z,381.30
2019-06-15T02:11:52.453Z,390.30
2019-06-15T02:12:27.732Z,388.20
2019-06-15T02:13:02.958Z,382.80
2019-06-15T02:13:38.839Z,375.70
2019-06-15T02:14:14.313Z,389.80
2019-06-15T02:14:49.729Z,392.90
2019-06-15T02:15:25.350Z,390.80
2019-06-15T02:16:02.157Z,387.50
2019-06-15T02:16:36.150Z,368.80
2019-06-15T02:17:11.593Z,347.10
2019-06-15T02:17:46.663Z,352.20
2019-06-15T02:18:22.103Z,354.10
2019-06-15T02:18:57.964Z,344.40
2019-06-15T02:19:33.398Z,357.70
2019-06-15T02:20:08.667Z,368.30
2019-06-15T02:20:44.033Z,380.20
2019-06-15T02:21:19.600Z,372.00
2019-06-15T02:21:54.945Z,366.50
2019-06-15T02:22:30.230Z,379.80
2019-06-15T02:23:05.756Z,372.10
2019-06-15T02:23:41.245Z,353.70
2019-06-15T02:24:16.673Z,363.50
2019-06-15T02:24:52.451Z,372.90
2019-06-15T02:25:36.027Z,380.70
2019-06-15T02:26:03.425Z,393.30
2019-06-15T02:26:38.767Z,382.60
2019-06-15T02:27:14.124Z,360.20
2019-06-15T02:27:49.560Z,353.80
2019-06-15T02:28:25.117Z,374.20
2019-06-15T02:29:00.746Z,362.90
2019-06-15T02:29:36.022Z,371.10
2019-06-15T02:30:11.353Z,379.00
2019-06-15T02:30:46.824Z,371.90
2019-06-15T02:31:22.305Z,374.30
2019-06-15T02:31:57.460Z,362.00
2019-06-15T02:32:32.786Z,376.80
2019-06-15T02:33:08.458Z,369.00
2019-06-15T02:33:43.790Z,358.30
2019-06-15T02:34:19.160Z,363.70
2019-06-15T02:34:54.413Z,362.30
2019-06-15T02:35:29.880Z,368.90
2019-06-15T02:36:05.108Z,365.70
2019-06-15T02:36:40.535Z,364.30
2019-06-15T02:37:15.958Z,363.50
2019-06-15T02:37:51.232Z,356.40
2019-06-15T02:38:26.758Z,372.10
2019-06-15T02:39:02.145Z,379.30
2019-06-15T02:39:37.567Z,367.30
2019-06-15T02:40:12.858Z,371.80
2019-06-15T02:40:48.170Z,378.50
2019-06-15T02:41:23.653Z,365.20
2019-06-15T02:41:59.059Z,373.60
2019-06-15T02:42:34.438Z,399.10
2019-06-15T02:43:10.184Z,385.90
2019-06-15T02:43:45.593Z,379.90
2019-06-15T02:44:21.037Z,385.90
2019-06-15T02:44:56.812Z,394.90
2019-06-15T02:45:32.140Z,382.30
2019-06-15T02:46:07.499Z,377.60
2019-06-15T02:46:43.041Z,389.30
2019-06-15T02:47:18.265Z,380.10
2019-06-15T02:47:53.900Z,366.00
2019-06-15T02:48:29.481Z,352.50
2019-06-15T02:49:04.808Z,371.40
2019-06-15T02:49:40.081Z,390.90
2019-06-15T02:50:15.308Z,394.10
2019-06-15T02:50:50.795Z,390.00
2019-06-15T02:51:25.957Z,383.40
2019-06-15T02:52:01.551Z,385.40
2019-06-15T02:52:37.023Z,381.90
2019-06-15T02:53:12.480Z,375.40
2019-06-15T02:53:47.813Z,377.40
2019-06-15T02:54:22.872Z,381.10
2019-06-15T02:54:58.205Z,387.40
2019-06-15T02:55:33.361Z,377.60
2019-06-15T02:56:09.072Z,360.50
2019-06-15T02:56:44.187Z,357.90
2019-06-15T02:57:19.628Z,366.80
2019-06-15T02:57:55.247Z,374.10
2019-06-15T02:58:30.569Z,380.30
2019-06-15T02:59:06.043Z,384.80
2019-06-15T02:59:41.389Z,376.90
2019-06-15T03:00:16.569Z,377.10
2019-06-15T03:00:52.205Z,367.90
2019-06-15T03:01:27.567Z,369.30
2019-06-15T03:02:03.108Z,378.00
2019-06-15T03:02:38.467Z,394.70
2019-06-15T03:03:13.856Z,373.30
2019-06-15T03:03:49.316Z,358.30
2019-06-15T03:04:24.944Z,356.40
2019-06-15T03:05:00.319Z,360.50
2019-06-15T03:05:35.658Z,377.60
2019-06-15T03:06:11.424Z,371.80
2019-06-15T03:06:46.974Z,363.20
2019-06-15T03:07:22.468Z,367.70
2019-06-15T03:07:58.191Z,356.00
2019-06-15T03:08:33.700Z,343.30
2019-06-15T03:09:08.915Z,362.10
2019-06-15T03:09:44.480Z,380.10
2019-06-15T03:10:19.922Z,384.90
2019-06-15T03:10:55.411Z,381.20
2019-06-15T03:11:30.648Z,367.90
2019-06-15T03:12:06.201Z,350.80
2019-06-15T03:12:41.338Z,354.20
2019-06-15T03:13:16.920Z,363.10
2019-06-15T03:13:52.293Z,377.70
2019-06-15T03:14:27.487Z,376.90
2019-06-15T03:15:02.513Z,379.10
2019-06-15T03:15:37.902Z,382.90
2019-06-15T03:16:13.330Z,387.00
2019-06-15T03:16:48.809Z,356.80
2019-06-15T03:17:24.448Z,340.50
2019-06-15T03:17:59.731Z,361.00
2019-06-15T03:18:35.066Z,360.90
2019-06-15T03:19:10.485Z,353.10
2019-06-15T03:19:45.927Z,359.10
2019-06-15T03:20:21.315Z,355.80
2019-06-15T03:20:56.449Z,372.10
2019-06-15T03:21:31.822Z,362.30
2019-06-15T03:22:07.597Z,374.40
2019-06-15T03:22:42.938Z,374.30
2019-06-15T03:23:18.312Z,374.00
2019-06-15T03:23:53.649Z,367.80
2019-06-15T03:24:29.363Z,349.20
2019-06-15T03:25:04.899Z,350.00
2019-06-15T03:25:40.080Z,363.90
2019-06-15T03:26:15.490Z,369.10
2019-06-15T03:26:51.126Z,375.80
2019-06-15T03:27:26.492Z,380.00
2019-06-15T03:28:02.140Z,386.50
2019-06-15T03:28:37.514Z,388.40
2019-06-15T03:29:12.761Z,371.30
2019-06-15T03:29:48.378Z,378.60
2019-06-15T03:30:23.712Z,378.40
2019-06-15T03:30:59.191Z,384.90
2019-06-15T03:31:34.420Z,380.60
2019-06-15T03:32:09.902Z,384.80
2019-06-15T03:32:45.434Z,393.80
2019-06-15T03:33:21.036Z,370.20
2019-06-15T03:33:56.662Z,373.30
2019-06-15T03:34:32.082Z,386.20
2019-06-15T03:35:07.451Z,368.20
2019-06-15T03:35:43.036Z,375.30
2019-06-15T03:36:18.364Z,372.40
2019-06-15T03:36:53.646Z,373.50
2019-06-15T03:37:28.986Z,388.60
2019-06-15T03:38:04.337Z,381.30
2019-06-15T03:38:39.591Z,371.90
2019-06-15T03:39:14.936Z,397.90
2019-06-15T03:39:50.481Z,403.70
2019-06-15T03:40:25.863Z,397.20
2019-06-15T03:41:01.242Z,367.30
2019-06-15T03:41:36.535Z,359.30
2019-06-15T03:42:11.771Z,359.10
2019-06-15T03:42:47.157Z,372.50
2019-06-15T03:43:22.382Z,374.60
2019-06-15T03:43:58.261Z,367.40
2019-06-15T03:44:33.519Z,364.20
2019-06-15T03:45:08.910Z,357.10
2019-06-15T03:45:44.366Z,384.30
2019-06-15T03:46:19.576Z,385.10
2019-06-15T03:46:54.917Z,379.20
2019-06-15T03:47:30.414Z,383.50
2019-06-15T03:48:05.743Z,382.90
2019-06-15T03:48:41.026Z,379.00
2019-06-15T03:49:16.279Z,378.40
2019-06-15T03:49:51.666Z,383.30
2019-06-15T03:50:26.900Z,383.20
2019-06-15T03:51:02.312Z,382.80
2019-06-15T03:51:37.443Z,394.40
2019-06-15T03:52:13.224Z,378.20
2019-06-15T03:52:48.560Z,361.00
2019-06-15T03:53:23.939Z,367.20
2019-06-15T03:53:59.499Z,366.40
2019-06-15T03:54:34.852Z,367.80
2019-06-15T03:55:10.175Z,381.50
2019-06-15T03:55:45.646Z,389.20
2019-06-15T03:56:22.151Z,376.00
2019-06-15T03:56:56.314Z,385.60
2019-06-15T03:57:31.552Z,378.60
2019-06-15T03:58:07.116Z,371.60
2019-06-15T03:58:42.546Z,379.30
2019-06-15T03:59:18.007Z,391.80
2019-06-15T03:59:53.455Z,393.00
2019-06-15T04:00:28.830Z,385.50
2019-06-15T04:01:04.257Z,383.70
2019-06-15T04:01:39.386Z,388.80
2019-06-15T04:02:14.937Z,397.60
2019-06-15T04:02:50.615Z,403.20
2019-06-15T04:03:25.949Z,399.90
2019-06-15T04:04:01.519Z,379.60
2019-06-15T04:04:36.959Z,377.90
2019-06-15T04:05:12.440Z,389.40
2019-06-15T04:05:47.682Z,397.40
2019-06-15T04:06:23.261Z,386.60
2019-06-15T04:06:58.625Z,379.40
2019-06-15T04:07:34.193Z,367.60
2019-06-15T04:08:09.536Z,359.10
2019-06-15T04:08:45.000Z,379.80
2019-06-15T04:09:20.435Z,376.20
2019-06-15T04:09:55.900Z,367.90
2019-06-15T04:10:31.332Z,368.10
2019-06-15T04:11:06.601Z,360.40
2019-06-15T04:11:41.742Z,360.30
2019-06-15T04:12:17.249Z,371.60
2019-06-15T04:12:52.682Z,372.00
2019-06-15T04:13:28.346Z,365.10
2019-06-15T04:14:03.890Z,367.70
2019-06-15T04:14:39.166Z,356.80
2019-06-15T04:15:14.500Z,352.80
2019-06-15T04:15:49.966Z,367.20
2019-06-15T04:16:25.210Z,373.60
2019-06-15T04:17:00.465Z,360.20
2019-06-15T04:17:35.943Z,364.10
2019-06-15T04:18:11.605Z,374.30
2019-06-15T04:18:46.841Z,380.00
2019-06-15T04:19:22.020Z,378.50
2019-06-15T04:19:57.672Z,381.10
2019-06-15T04:20:33.542Z,377.00
2019-06-15T04:21:08.788Z,361.80
2019-06-15T04:21:44.242Z,365.00
2019-06-15T04:22:19.769Z,364.90
2019-06-15T04:22:55.088Z,366.20
2019-06-15T04:23:30.516Z,369.70
2019-06-15T04:24:05.886Z,362.50
2019-06-15T04:24:41.227Z,343.00
2019-06-15T04:25:16.700Z,334.90
2019-06-15T04:25:52.148Z,335.80
2019-06-15T04:26:35.742Z,341.10
2019-06-15T04:27:02.867Z,346.60
2019-06-15T04:27:38.126Z,338.50
2019-06-15T04:28:13.697Z,327.30
2019-06-15T04:28:49.385Z,340.90
2019-06-15T04:29:25.010Z,360.40
2019-06-15T04:30:00.391Z,353.70
2019-06-15T04:30:35.737Z,338.50
2019-06-15T04:31:11.417Z,348.00
2019-06-15T04:31:46.750Z,339.50
2019-06-15T04:32:22.318Z,335.80
2019-06-15T04:32:57.458Z,335.90
2019-06-15T04:33:33.069Z,334.90
2019-06-15T04:34:08.506Z,329.30
2019-06-15T04:34:43.863Z,312.70
2019-06-15T04:35:19.682Z,289.50
2019-06-15T04:35:54.874Z,295.10
2019-06-15T04:36:30.310Z,302.60
2019-06-15T04:37:05.667Z,303.30
2019-06-15T04:37:41.024Z,298.40
2019-06-15T04:38:16.212Z,297.20
2019-06-15T04:38:51.897Z,296.80
2019-06-15T04:39:27.684Z,314.20
2019-06-15T04:40:02.914Z,315.80
2019-06-15T04:40:38.280Z,308.80
2019-06-15T04:41:13.508Z,291.50
2019-06-15T04:41:48.996Z,300.10
2019-06-15T04:42:24.234Z,306.80
2019-06-15T04:42:59.511Z,298.50
2019-06-15T04:43:34.644Z,288.50
2019-06-15T04:44:10.364Z,283.90
2019-06-15T04:44:45.504Z,271.30
2019-06-15T04:45:20.876Z,284.80
2019-06-15T04:45:56.417Z,305.90
2019-06-15T04:46:32.152Z,294.10
2019-06-15T04:47:07.157Z,285.60
2019-06-15T04:47:42.752Z,272.80
2019-06-15T04:48:18.262Z,280.50
2019-06-15T04:48:53.772Z,274.90
2019-06-15T04:49:29.141Z,270.80
2019-06-15T04:50:04.516Z,267.30
2019-06-15T04:50:39.774Z,262.40
2019-06-15T04:51:15.257Z,249.50
2019-06-15T04:51:51.103Z,272.10
2019-06-15T04:52:26.793Z,272.70
2019-06-15T04:53:02.230Z,264.30
2019-06-15T04:53:37.537Z,254.20
2019-06-15T04:54:13.139Z,255.40
2019-06-15T04:54:48.437Z,254.70
2019-06-15T04:55:23.666Z,256.70
2019-06-15T04:55:59.240Z,252.00
2019-06-15T04:56:34.759Z,248.00
2019-06-15T04:57:10.133Z,271.60
2019-06-15T04:57:45.371Z,264.10
2019-06-15T04:58:20.447Z,243.70
2019-06-15T04:58:55.583Z,245.70
2019-06-15T04:59:30.949Z,268.20
2019-06-15T05:00:06.329Z,276.40
2019-06-15T05:00:41.401Z,271.70
2019-06-15T05:01:16.847Z,253.70
2019-06-15T05:01:52.107Z,261.10
2019-06-15T05:02:27.542Z,245.10
2019-06-15T05:03:02.838Z,247.40
2019-06-15T05:03:38.105Z,241.80
2019-06-15T05:04:13.352Z,246.90
2019-06-15T05:04:48.732Z,259.70
2019-06-15T05:05:24.026Z,250.20
2019-06-15T05:05:59.281Z,238.20
2019-06-15T05:06:34.619Z,233.30
2019-06-15T05:07:09.991Z,257.70
2019-06-15T05:07:45.229Z,255.40
2019-06-15T05:08:20.709Z,231.80
2019-06-15T05:08:56.051Z,209.00
2019-06-15T05:09:31.414Z,223.10
2019-06-15T05:10:06.897Z,256.00
2019-06-15T05:10:42.365Z,255.30
2019-06-15T05:11:17.829Z,244.80
2019-06-15T05:11:53.173Z,224.50
2019-06-15T05:12:28.720Z,207.70
2019-06-15T05:13:04.187Z,226.00
2019-06-15T05:13:39.727Z,223.90
2019-06-15T05:14:15.297Z,213.70
2019-06-15T05:14:50.719Z,236.20
2019-06-15T05:15:26.199Z,223.20
2019-06-15T05:16:01.584Z,224.30
2019-06-15T05:16:37.171Z,224.00
2019-06-15T05:17:12.395Z,235.50
2019-06-15T05:17:47.875Z,230.10
2019-06-15T05:18:23.098Z,228.10
2019-06-15T05:18:58.677Z,214.50
2019-06-15T05:19:34.120Z,267.80
2019-06-15T05:20:09.626Z,230.50
2019-06-15T05:20:44.930Z,221.40
2019-06-15T05:21:20.444Z,215.10
2019-06-15T05:21:55.979Z,213.10
2019-06-15T05:22:31.445Z,220.60
2019-06-15T05:23:06.599Z,212.80
2019-06-15T05:23:42.263Z,220.20
2019-06-15T05:24:17.679Z,213.50
2019-06-15T05:24:52.962Z,227.10
2019-06-15T05:25:28.307Z,217.40
2019-06-15T05:26:03.684Z,215.10
2019-06-15T05:26:39.072Z,223.90
2019-06-15T05:27:14.342Z,236.50
2019-06-15T05:27:50.003Z,211.00
2019-06-15T05:28:25.370Z,220.30
2019-06-15T05:29:00.617Z,219.90
2019-06-15T05:29:36.076Z,222.50
2019-06-15T05:30:11.806Z,220.40
2019-06-15T05:30:47.284Z,215.90
2019-06-15T05:31:22.528Z,203.40
2019-06-15T05:31:57.925Z,205.70
2019-06-15T05:32:33.085Z,231.20
2019-06-15T05:33:08.437Z,215.90
2019-06-15T05:33:43.652Z,217.80
2019-06-15T05:34:18.928Z,204.60
2019-06-15T05:34:54.166Z,212.70
2019-06-15T05:35:29.519Z,234.00
2019-06-15T05:36:04.759Z,224.80
2019-06-15T05:36:40.232Z,211.10
2019-06-15T05:37:15.800Z,217.70
2019-06-15T05:37:51.410Z,237.40
2019-06-15T05:38:27.034Z,237.40
2019-06-15T05:39:02.314Z,242.20
2019-06-15T05:39:37.674Z,232.50
2019-06-15T05:40:12.897Z,220.60
2019-06-15T05:40:48.272Z,224.40
2019-06-15T05:41:23.900Z,245.10
2019-06-15T05:41:59.362Z,248.60
2019-06-15T05:42:35.103Z,269.60
2019-06-15T05:43:10.699Z,250.90
2019-06-15T05:43:45.940Z,248.40
2019-06-15T05:44:21.316Z,249.10
2019-06-15T05:44:56.878Z,263.80
2019-06-15T05:45:32.406Z,273.40
2019-06-15T05:46:07.779Z,270.50
2019-06-15T05:46:43.118Z,250.50
2019-06-15T05:47:18.584Z,248.60
2019-06-15T05:47:53.756Z,252.00
2019-06-15T05:48:29.146Z,260.30
2019-06-15T05:49:04.687Z,262.10
2019-06-15T05:49:40.161Z,254.90
2019-06-15T05:50:15.696Z,270.80
2019-06-15T05:50:51.175Z,273.40
2019-06-15T05:51:26.750Z,277.00
2019-06-15T05:52:01.997Z,275.20
2019-06-15T05:52:37.460Z,262.90
2019-06-15T05:53:12.938Z,262.30
2019-06-15T05:53:48.523Z,254.40
2019-06-15T05:54:23.869Z,257.10
2019-06-15T05:54:59.233Z,274.40
2019-06-15T05:55:34.564Z,261.60
2019-06-15T05:56:10.244Z,256.50
2019-06-15T05:56:45.683Z,257.90
2019-06-15T05:57:21.935Z,251.90
2019-06-15T05:57:56.331Z,262.20
2019-06-15T05:58:31.713Z,277.90
2019-06-15T05:59:07.461Z,262.90
2019-06-15T05:59:42.813Z,260.30
2019-06-15T06:00:18.144Z,259.50
2019-06-15T06:00:53.419Z,252.30
2019-06-15T06:01:28.767Z,251.90
2019-06-15T06:02:04.227Z,265.40
2019-06-15T06:02:39.874Z,256.10
2019-06-15T06:03:15.289Z,235.80
2019-06-15T06:03:50.635Z,249.30
2019-06-15T06:04:25.999Z,256.00
2019-06-15T06:05:01.531Z,249.40
2019-06-15T06:05:37.084Z,256.50
2019-06-15T06:06:12.407Z,257.20
2019-06-15T06:06:47.771Z,263.40
2019-06-15T06:07:23.505Z,260.00
2019-06-15T06:07:59.115Z,250.80
2019-06-15T06:08:34.685Z,257.20
2019-06-15T06:09:10.161Z,270.70
2019-06-15T06:09:45.483Z,263.90
2019-06-15T06:10:20.752Z,246.00
2019-06-15T06:10:56.371Z,249.70
2019-06-15T06:11:31.728Z,254.70
2019-06-15T06:12:07.170Z,250.90
2019-06-15T06:12:42.533Z,258.00
2019-06-15T06:13:17.928Z,254.50
2019-06-15T06:13:53.391Z,252.20
2019-06-15T06:14:28.816Z,265.10
2019-06-15T06:15:04.176Z,278.60
2019-06-15T06:15:39.429Z,273.30
2019-06-15T06:16:14.904Z,264.10
2019-06-15T06:16:49.946Z,266.00
2019-06-15T06:17:25.611Z,272.90
2019-06-15T06:18:00.896Z,265.60
2019-06-15T06:18:36.375Z,262.00
2019-06-15T06:19:11.901Z,249.30
2019-06-15T06:19:47.466Z,269.20
2019-06-15T06:20:22.703Z,265.20
2019-06-15T06:20:58.066Z,264.70
2019-06-15T06:21:33.717Z,274.10
2019-06-15T06:22:09.178Z,278.50
2019-06-15T06:22:44.670Z,262.40
2019-06-15T06:23:19.990Z,250.50
2019-06-15T06:23:55.354Z,250.20
2019-06-15T06:24:30.732Z,251.30
2019-06-15T06:25:05.968Z,279.50
2019-06-15T06:25:41.469Z,284.10
2019-06-15T06:26:16.695Z,278.30
2019-06-15T06:26:52.060Z,277.30
2019-06-15T06:27:36.191Z,276.60
2019-06-15T06:28:03.001Z,266.30
2019-06-15T06:28:38.116Z,259.20
2019-06-15T06:29:13.396Z,252.30
2019-06-15T06:29:49.075Z,267.20
2019-06-15T06:30:24.433Z,287.10
2019-06-15T06:30:59.494Z,277.80
2019-06-15T06:31:34.940Z,272.80
2019-06-15T06:32:10.331Z,277.30
2019-06-15T06:32:45.919Z,275.10
2019-06-15T06:33:21.392Z,293.20
2019-06-15T06:33:56.807Z,299.10
2019-06-15T06:34:32.590Z,291.10
2019-06-15T06:35:07.937Z,278.60
2019-06-15T06:35:43.399Z,285.60
2019-06-15T06:36:18.796Z,276.20
2019-06-15T06:36:54.334Z,295.50
2019-06-15T06:37:29.602Z,305.10
2019-06-15T06:38:05.006Z,304.70
2019-06-15T06:38:40.278Z,300.30
2019-06-15T06:39:15.503Z,281.20
2019-06-15T06:39:50.796Z,300.80
2019-06-15T06:40:26.241Z,295.00
2019-06-15T06:41:01.574Z,267.20
2019-06-15T06:41:36.730Z,268.60
2019-06-15T06:42:12.103Z,274.40
2019-06-15T06:42:47.908Z,270.50
2019-06-15T06:43:23.456Z,288.90
2019-06-15T06:43:59.000Z,280.50
2019-06-15T06:44:34.267Z,281.90
2019-06-15T06:45:09.582Z,275.30
2019-06-15T06:45:45.049Z,272.10
2019-06-15T06:46:20.380Z,268.20
2019-06-15T06:46:55.868Z,289.60
2019-06-15T06:47:31.341Z,293.80
2019-06-15T06:48:06.847Z,283.80
2019-06-15T06:48:42.098Z,256.90
2019-06-15T06:49:17.490Z,261.60
2019-06-15T06:49:53.053Z,271.60
2019-06-15T06:50:28.398Z,293.80
2019-06-15T06:51:03.658Z,278.10
2019-06-15T06:51:38.995Z,263.80
2019-06-15T06:52:14.678Z,270.70
2019-06-15T06:52:50.337Z,283.80
2019-06-15T06:53:25.713Z,285.90
2019-06-15T06:54:01.241Z,298.10
2019-06-15T06:54:36.712Z,304.60
2019-06-15T06:55:12.241Z,278.00
2019-06-15T06:55:47.626Z,272.30
2019-06-15T06:56:22.953Z,271.30
2019-06-15T06:56:58.328Z,293.10
2019-06-15T06:57:33.658Z,285.90
2019-06-15T06:58:08.983Z,279.30
2019-06-15T06:58:44.127Z,281.40
2019-06-15T06:59:19.498Z,281.10
2019-06-15T06:59:55.054Z,284.70
2019-06-15T07:00:30.219Z,265.90
2019-06-15T07:01:05.958Z,262.90
2019-06-15T07:01:41.333Z,273.60
2019-06-15T07:02:16.975Z,263.40
2019-06-15T07:02:52.193Z,253.60
2019-06-15T07:03:27.373Z,251.50
2019-06-15T07:04:02.803Z,246.50
2019-06-15T07:04:38.679Z,241.30
2019-06-15T07:05:13.917Z,250.20
2019-06-15T07:05:49.500Z,258.60
2019-06-15T07:06:24.931Z,257.90
2019-06-15T07:07:00.127Z,248.10
2019-06-15T07:07:35.540Z,236.10
2019-06-15T07:08:10.954Z,225.80
2019-06-15T07:08:48.030Z,223.40
2019-06-15T07:09:21.571Z,227.70
2019-06-15T07:09:57.004Z,236.40
2019-06-15T07:10:32.468Z,224.10
2019-06-15T07:11:07.816Z,203.30
2019-06-15T07:11:43.078Z,237.60
2019-06-15T07:12:18.611Z,235.60
2019-06-15T07:12:54.023Z,208.70
2019-06-15T07:13:29.599Z,224.70
2019-06-15T07:14:05.270Z,231.00
2019-06-15T07:14:40.750Z,225.20
2019-06-15T07:15:16.184Z,220.80
2019-06-15T07:15:51.748Z,240.30
2019-06-15T07:16:27.396Z,237.00
2019-06-15T07:17:02.779Z,248.60
2019-06-15T07:17:38.214Z,232.90
2019-06-15T07:18:13.758Z,215.30
2019-06-15T07:18:48.864Z,232.80
2019-06-15T07:19:24.256Z,237.90
2019-06-15T07:19:59.607Z,227.80
2019-06-15T07:20:35.164Z,221.20
2019-06-15T07:21:10.509Z,208.20
2019-06-15T07:21:45.806Z,227.20